Home > Products > Valid Products > TAF

000
FTUS41 KGYX 011158 AAA
TAFPSM
TAF AMD
KPSM 011158Z 0112/0212 12009KT 6SM -RA BR OVC010
      TEMPO 0112/0114 2SM TSRA OVC005CB
     FM020000 18008KT 1 1/2SM SHRA BR OVC015
     FM020500 27007KT P6SM BKN050=



000
FTUS41 KGYX 011157 AAA
TAFAUG
TAF AMD
KAUG 011157Z 0112/0212 18005KT P6SM BKN006 OVC045
     FM011400 16007KT 6SM -SHRA BR OVC025
     FM020000 16008KT 1 1/2SM SHRA BR OVC015=



000
FTUS41 KGYX 011123
TAFLEB
TAF
KLEB 011123Z 0112/0212 16007KT 3SM -RA BR OVC030
      TEMPO 0112/0114 3SM TSRA OVC030CB
     FM012200 18008KT 1 1/2SM SHRA BR OVC015
     FM020400 27007KT P6SM BKN050=



000
FTUS41 KGYX 011123
TAFPSM
TAF
KPSM 011123Z 0112/0212 12009KT 6SM -RA BR OVC010
      TEMPO 0112/0114 3SM TSRA OVC010CB
     FM020000 18008KT 1 1/2SM SHRA BR OVC015
     FM020500 27007KT P6SM BKN050=



000
FTUS41 KGYX 011123
TAFPWM
TAF
KPWM 011123Z 0112/0212 11004KT P6SM SCT004 OVC070
     FM011300 13007KT 3SM SHRA BR OVC012
      TEMPO 0113/0115 3SM TSRA OVC012CB
     FM020000 18008KT 1 1/2SM SHRA BR OVC015
     FM020500 27007KT P6SM BKN050=



000
FTUS41 KGYX 011123
TAFCON
TAF
KCON 011123Z 0112/0212 13007KT 3SM -RA BR OVC010
      TEMPO 0112/0114 3SM TSRA OVC010CB
     FM020000 18008KT 1 1/2SM SHRA BR OVC015
     FM020500 27007KT P6SM BKN050=



000
FTUS41 KGYX 011123
TAFAUG
TAF
KAUG 011123Z 0112/0212 18005KT P6SM -SHRA BKN070
     FM011300 16007KT 6SM -SHRA BR OVC035
     FM020000 16008KT 1 1/2SM SHRA BR OVC015=



000
FTUS41 KGYX 011059 AAC
TAFPWM
TAF AMD
KPWM 011059Z 0111/0206 11004KT P6SM SCT004 OVC070
     FM011300 13007KT 3SM BR VCSH OVC012 PROB30 0120/0122 3SM -TSRA
      OVC012CB
     FM020000 18008KT 1 1/2SM SHRA BR OVC015
     FM020500 27007KT P6SM BKN050=



000
FTUS41 KGYX 011007 AAB
TAFPSM
TAF AMD
KPSM 011007Z 0110/0206 09005KT P6SM BKN007 OVC100
     FM011200 12009KT 2SM -RA BR OVC010 PROB30 0119/0120 3SM -TSRA
      OVC010CB
     FM020000 18008KT 1 1/2SM SHRA BR OVC015
     FM020500 27007KT P6SM BKN050=



000
FTUS41 KGYX 011007 AAB
TAFPSM
TAF AMD
KPSM 011007Z 0110/0206 09005KT P6SM BKN007 OVC100
     FM011200 12009KT 2SM -RA BR OVC010 PROB30 0119/0120 3SM -TSRA
      OVC010CB
     FM020000 18008KT 1 1/2SM SHRA BR OVC015
     FM020500 27007KT P6SM BKN050=



000
FTUS41 KGYX 010955 AAB
TAFPWM
TAF AMD
KPWM 010955Z 0110/0206 VRB03KT P6SM BKN004 OVC070
     FM011300 13007KT 3SM BR VCSH OVC012 PROB30 0119/0122 3SM -TSRA
      OVC012CB
     FM020000 18008KT 1 1/2SM SHRA BR OVC015
     FM020500 27007KT P6SM BKN050=



000
FTUS41 KGYX 010914 AAA
TAFAUG
TAF AMD
KAUG 010914Z 0109/0206 18005KT P6SM -SHRA BKN070
     FM011200 16007KT 6SM -SHRA BR OVC035
     FM020000 16008KT 1 1/2SM SHRA BR OVC015=



000
FTUS41 KGYX 010914 AAA
TAFCON
TAF AMD
KCON 010914Z 0109/0206 VRB03KT P6SM BKN050 OVC100
     FM011200 13005KT 5SM -RA BR OVC035
     FM011500 13007KT 3SM -RA BR OVC010 PROB30 0118/0121 3SM -TSRA
      OVC010CB
     FM020000 18008KT 1 1/2SM SHRA BR OVC015
     FM020500 27007KT P6SM BKN050=



000
FTUS41 KGYX 010914 AAB
TAFLEB
TAF AMD
KLEB 010914Z 0109/0206 VRB03KT 5SM BR SCT003 OVC035
      TEMPO 0109/0111 2SM SHRA BR BKN003
     FM011100 16007KT 3SM -RA BR OVC030 PROB30 0118/0122 3SM -TSRA
      OVC030CB
     FM012200 18008KT 1 1/2SM SHRA BR OVC015
     FM020400 27007KT P6SM BKN050=



000
FTUS41 KGYX 010914 AAA
TAFPWM
TAF AMD
KPWM 010914Z 0109/0206 VRB03KT P6SM SCT050 BKN100
     FM011300 13007KT 3SM BR VCSH OVC012 PROB30 0118/0122 3SM -TSRA
      OVC012CB
     FM020000 18008KT 1 1/2SM SHRA BR OVC015
     FM020500 27007KT P6SM BKN050=



000
FTUS41 KGYX 010914 AAA
TAFPSM
TAF AMD
KPSM 010914Z 0109/0206 14007KT P6SM SCT050 BKN100
     FM011200 12009KT 2SM -RA BR OVC010 PROB30 0118/0120 3SM -TSRA
      OVC010CB
     FM020000 18008KT 1 1/2SM SHRA BR OVC015
     FM020500 27007KT P6SM BKN050=



000
FTUS41 KGYX 010914 AAA
TAFPSM
TAF AMD
KPSM 010914Z 0109/0206 14007KT P6SM SCT050 BKN100
     FM011200 12009KT 2SM -RA BR OVC010 PROB30 0118/0120 3SM -TSRA
      OVC010CB
     FM020000 18008KT 1 1/2SM SHRA BR OVC015
     FM020500 27007KT P6SM BKN050=



000
FTUS41 KGYX 010914 AAB
TAFLEB
TAF AMD
KLEB 010914Z 0109/0206 VRB03KT 5SM BR SCT003 OVC035
      TEMPO 0109/0111 2SM SHRA BR BKN003
     FM011100 16007KT 3SM -RA BR OVC030 PROB30 0118/0122 3SM -TSRA
      OVC030CB
     FM012200 18008KT 1 1/2SM SHRA BR OVC015
     FM020400 27007KT P6SM BKN050=



000
FTUS41 KGYX 010914 AAA
TAFPWM
TAF AMD
KPWM 010914Z 0109/0206 VRB03KT P6SM SCT050 BKN100
     FM011300 13007KT 3SM BR VCSH OVC012 PROB30 0118/0122 3SM -TSRA
      OVC012CB
     FM020000 18008KT 1 1/2SM SHRA BR OVC015
     FM020500 27007KT P6SM BKN050=



000
FTUS41 KGYX 010914 AAA
TAFCON
TAF AMD
KCON 010914Z 0109/0206 VRB03KT P6SM BKN050 OVC100
     FM011200 13005KT 5SM -RA BR OVC035
     FM011500 13007KT 3SM -RA BR OVC010 PROB30 0118/0121 3SM -TSRA
      OVC010CB
     FM020000 18008KT 1 1/2SM SHRA BR OVC015
     FM020500 27007KT P6SM BKN050=



000
FTUS41 KGYX 010805 AAA
TAFLEB
TAF AMD
KLEB 010805Z 0108/0206 VRB03KT 5SM BR SCT003 OVC035
      TEMPO 0108/0111 2SM SHRA BR BKN003
     FM011100 16007KT 3SM -RA BR OVC030 PROB30 0117/0122 3SM -TSRA
      OVC030CB
     FM012200 18008KT 1 1/2SM SHRA BR OVC015
     FM020400 27007KT P6SM BKN050=



000
FTUS41 KGYX 010530
TAFLEB
TAF
KLEB 010530Z 0106/0206 VRB03KT 2SM BR SCT001 OVC100
      TEMPO 0106/0109 1/2SM FG VV001
     FM011100 16007KT 3SM -RA BR OVC030 PROB30 0117/0122 3SM -TSRA
      OVC030CB
     FM012200 18008KT 1 1/2SM SHRA BR OVC015
     FM020400 27007KT P6SM BKN050=



000
FTUS41 KGYX 010530
TAFPSM
TAF
KPSM 010530Z 0106/0206 14007KT P6SM SCT050 BKN100
     FM011200 12009KT 2SM -RA BR OVC010 PROB30 0116/0120 3SM -TSRA
      OVC010CB
     FM020000 18008KT 1 1/2SM SHRA BR OVC015
     FM020500 27007KT P6SM BKN050=



000
FTUS41 KGYX 010530
TAFPWM
TAF
KPWM 010530Z 0106/0206 VRB03KT P6SM SCT050 BKN100
     FM011300 13007KT 3SM BR VCSH OVC012 PROB30 0118/0122 3SM -TSRA
      OVC012CB
     FM020000 18008KT 1 1/2SM SHRA BR OVC015
     FM020500 27007KT P6SM BKN050=



000
FTUS41 KGYX 010530
TAFAUG
TAF
KAUG 010530Z 0106/0206 18005KT P6SM -SHRA BKN070
     FM011200 16007KT 6SM -SHRA BR OVC035
     FM020000 16008KT 1 1/2SM SHRA BR OVC015=



000
FTUS41 KGYX 010530
TAFCON
TAF
KCON 010530Z 0106/0206 VRB03KT P6SM BKN050 OVC100
     FM011200 13005KT 5SM -RA BR OVC035
     FM011500 13007KT 3SM -RA BR OVC010 PROB30 0116/0121 3SM -TSRA
      OVC010CB
     FM020000 18008KT 1 1/2SM SHRA BR OVC015
     FM020500 27007KT P6SM BKN050=



000
FTUS41 KGYX 010530
TAFPWM
TAF
KPWM 010530Z 0106/0206 VRB03KT P6SM SCT050 BKN100
     FM011300 13007KT 3SM BR VCSH OVC012 PROB30 0118/0122 3SM -TSRA
      OVC012CB
     FM020000 18008KT 1 1/2SM SHRA BR OVC015
     FM020500 27007KT P6SM BKN050=



000
FTUS41 KGYX 010530
TAFLEB
TAF
KLEB 010530Z 0106/0206 VRB03KT 2SM BR SCT001 OVC100
      TEMPO 0106/0109 1/2SM FG VV001
     FM011100 16007KT 3SM -RA BR OVC030 PROB30 0117/0122 3SM -TSRA
      OVC030CB
     FM012200 18008KT 1 1/2SM SHRA BR OVC015
     FM020400 27007KT P6SM BKN050=



000
FTUS41 KGYX 010530
TAFAUG
TAF
KAUG 010530Z 0106/0206 18005KT P6SM -SHRA BKN070
     FM011200 16007KT 6SM -SHRA BR OVC035
     FM020000 16008KT 1 1/2SM SHRA BR OVC015=



000
FTUS41 KGYX 010530
TAFCON
TAF
KCON 010530Z 0106/0206 VRB03KT P6SM BKN050 OVC100
     FM011200 13005KT 5SM -RA BR OVC035
     FM011500 13007KT 3SM -RA BR OVC010 PROB30 0116/0121 3SM -TSRA
      OVC010CB
     FM020000 18008KT 1 1/2SM SHRA BR OVC015
     FM020500 27007KT P6SM BKN050=



000
FTUS41 KGYX 010530
TAFPSM
TAF
KPSM 010530Z 0106/0206 14007KT P6SM SCT050 BKN100
     FM011200 12009KT 2SM -RA BR OVC010 PROB30 0116/0120 3SM -TSRA
      OVC010CB
     FM020000 18008KT 1 1/2SM SHRA BR OVC015
     FM020500 27007KT P6SM BKN050=



000
FTUS41 KGYX 010314 AAB
TAFLEB
TAF AMD
KLEB 010314Z 0103/0124 VRB03KT P6SM BKN110
      TEMPO 0106/0110 2SM BR SCT002
     FM011000 00000KT 5SM BR OVC060
     FM011200 17005KT 3SM -RA BR OVC010 PROB30 0115/0121 3SM -TSRA
      OVC010CB=



000
FTUS41 KGYX 010314 AAB
TAFLEB
TAF AMD
KLEB 010314Z 0103/0124 VRB03KT P6SM BKN110
      TEMPO 0106/0110 2SM BR SCT002
     FM011000 00000KT 5SM BR OVC060
     FM011200 17005KT 3SM -RA BR OVC010 PROB30 0115/0121 3SM -TSRA
      OVC010CB=



000
FTUS41 KGYX 010307 AAA
TAFLEB
TAF AMD
KLEB 010307Z 0103/0124 VRB03KT P6SM BKN110
     FM010900 00000KT 5SM BR OVC060
     FM011000 17005KT 3SM -RA BR OVC010 PROB30 0115/0121 3SM -TSRA
      OVC010CB=



000
FTUS41 KGYX 302320
TAFPWM
TAF
KPWM 302320Z 0100/0124 18007KT P6SM SCT035 BKN100
     FM010600 13004KT 5SM BR OVC050
     FM011300 13007KT 3SM BR VCSH OVC012 PROB30 0118/0122 3SM -TSRA
      OVC012CB=



000
FTUS41 KGYX 302320
TAFCON
TAF
KCON 302320Z 0100/0124 14006KT P6SM BKN050 OVC100
     FM011200 13005KT 5SM -RA BR OVC030
     FM011500 13007KT 3SM -RA BR OVC010 PROB30 0116/0121 3SM -TSRA
      OVC010CB=



000
FTUS41 KGYX 302320
TAFLEB
TAF
KLEB 302320Z 0100/0124 VRB03KT P6SM VCSH SCT040 OVC060
     FM010300 00000KT 5SM BR OVC060
     FM011000 17005KT 3SM -RA BR OVC010 PROB30 0115/0121 3SM -TSRA
      OVC010CB=



000
FTUS41 KGYX 302320
TAFPSM
TAF
KPSM 302320Z 0100/0124 14007KT P6SM BKN080 BKN120
     FM010900 12005KT 3SM BR OVC050
     FM011200 12009KT 2SM -RA BR OVC010 PROB30 0116/0120 3SM -TSRA
      OVC010CB=



000
FTUS41 KGYX 302320
TAFAUG
TAF
KAUG 302320Z 0100/0124 18005KT P6SM BKN120
     FM011200 14004KT P6SM OVC020
     FM011500 13009KT 5SM -RA BR OVC030=



000
FTUS41 KGYX 301733
TAFPSM
TAF
KPSM 301733Z 3018/0118 15006KT P6SM SCT050 BKN100
     FM010900 12007KT 3SM BR OVC050
     FM011200 11009KT 2SM -RA BR OVC010=



000
FTUS41 KGYX 301733
TAFPWM
TAF
KPWM 301733Z 3018/0118 10008KT P6SM SCT050 BKN100
     FM010600 VRB03KT 5SM BR OVC050
     FM011300 13007KT 3SM -RA BR OVC015=



000
FTUS41 KGYX 301733
TAFCON
TAF
KCON 301733Z 3018/0118 17007KT P6SM SCT050 BKN100
     FM302000 24005KT P6SM BKN050
      TEMPO 3020/3024 P6SM -SHRA BKN050
     FM011200 13005KT 5SM -RA BR OVC030
     FM011500 13007KT 3SM -RA BR OVC010=



000
FTUS41 KGYX 301733
TAFAUG
TAF
KAUG 301733Z 3018/0118 16008KT P6SM BKN050
     FM010600 VRB03KT 4SM BR OVC050
     FM011200 16007KT P6SM OVC040
     FM011500 13009KT 5SM -RA BR OVC030=



000
FTUS41 KGYX 301733
TAFLEB
TAF
KLEB 301733Z 3018/0118 17007KT P6SM SCT050 BKN100
     FM301900 17009KT 3SM -SHRA BKN050 OVC100
     FM302100 17009KT P6SM OVC100
     FM010400 00000KT 5SM BR OVC050
     FM011000 17005KT 3SM -RA BR OVC010=



000
FTUS41 KGYX 301733
TAFPWM
TAF
KPWM 301733Z 3018/0118 10008KT P6SM SCT050 BKN100
     FM010600 VRB03KT 5SM BR OVC050
     FM011300 13007KT 3SM -RA BR OVC015=



000
FTUS41 KGYX 301733
TAFPSM
TAF
KPSM 301733Z 3018/0118 15006KT P6SM SCT050 BKN100
     FM010900 12007KT 3SM BR OVC050
     FM011200 11009KT 2SM -RA BR OVC010=



000
FTUS41 KGYX 301733
TAFAUG
TAF
KAUG 301733Z 3018/0118 16008KT P6SM BKN050
     FM010600 VRB03KT 4SM BR OVC050
     FM011200 16007KT P6SM OVC040
     FM011500 13009KT 5SM -RA BR OVC030=



000
FTUS41 KGYX 301733
TAFCON
TAF
KCON 301733Z 3018/0118 17007KT P6SM SCT050 BKN100
     FM302000 24005KT P6SM BKN050
      TEMPO 3020/3024 P6SM -SHRA BKN050
     FM011200 13005KT 5SM -RA BR OVC030
     FM011500 13007KT 3SM -RA BR OVC010=



000
FTUS41 KGYX 301733
TAFLEB
TAF
KLEB 301733Z 3018/0118 17007KT P6SM SCT050 BKN100
     FM301900 17009KT 3SM -SHRA BKN050 OVC100
     FM302100 17009KT P6SM OVC100
     FM010400 00000KT 5SM BR OVC050
     FM011000 17005KT 3SM -RA BR OVC010=



000
FTUS41 KGYX 301300 AAA
TAFLEB
TAF AMD
KLEB 301300Z 3013/0112 VRB03KT 3SM BR OVC001
     FM301400 17007KT P6SM SCT050 BKN100
     FM010400 00000KT 5SM BR OVC050=



000
FTUS41 KGYX 301300 AAA
TAFLEB
TAF AMD
KLEB 301300Z 3013/0112 VRB03KT 3SM BR OVC001
     FM301400 17007KT P6SM SCT050 BKN100
     FM010400 00000KT 5SM BR OVC050=



000
FTUS41 KGYX 301120
TAFPWM
TAF
KPWM 301120Z 3012/0112 VRB03KT P6SM BKN060
     FM301300 16008KT P6SM SCT050 BKN100
     FM010600 VRB03KT 5SM BR OVC050=



000
FTUS41 KGYX 301120
TAFCON
TAF
KCON 301120Z 3012/0112 17007KT P6SM SCT050 BKN100=



000
FTUS41 KGYX 301120
TAFAUG
TAF
KAUG 301120Z 3012/0112 00000KT P6SM OVC070
     FM301400 16008KT P6SM SCT050 BKN100
     FM010600 VRB03KT 5SM BR OVC050=



000
FTUS41 KGYX 301120
TAFPSM
TAF
KPSM 301120Z 3012/0112 15006KT P6SM SCT050 BKN100=



000
FTUS41 KGYX 301120
TAFLEB
TAF
KLEB 301120Z 3012/0112 VRB03KT 3SM BR OVC001
     FM301300 17007KT P6SM SCT050 BKN100
     FM010400 00000KT 5SM BR OVC050=



000
FTUS41 KGYX 301120
TAFCON
TAF
KCON 301120Z 3012/0112 17007KT P6SM SCT050 BKN100=



000
FTUS41 KGYX 301120
TAFLEB
TAF
KLEB 301120Z 3012/0112 VRB03KT 3SM BR OVC001
     FM301300 17007KT P6SM SCT050 BKN100
     FM010400 00000KT 5SM BR OVC050=



000
FTUS41 KGYX 301120
TAFPSM
TAF
KPSM 301120Z 3012/0112 15006KT P6SM SCT050 BKN100=



000
FTUS41 KGYX 301120
TAFAUG
TAF
KAUG 301120Z 3012/0112 00000KT P6SM OVC070
     FM301400 16008KT P6SM SCT050 BKN100
     FM010600 VRB03KT 5SM BR OVC050=



000
FTUS41 KGYX 301120
TAFPWM
TAF
KPWM 301120Z 3012/0112 VRB03KT P6SM BKN060
     FM301300 16008KT P6SM SCT050 BKN100
     FM010600 VRB03KT 5SM BR OVC050=



000
FTUS41 KGYX 301113 AAD
TAFLEB
TAF AMD
KLEB 301113Z 3011/0106 VRB03KT 3SM BR OVC001
     FM301300 17007KT P6SM BKN050=



000
FTUS41 KGYX 301113 AAD
TAFLEB
TAF AMD
KLEB 301113Z 3011/0106 VRB03KT 3SM BR OVC001
     FM301300 17007KT P6SM BKN050=



000
FTUS41 KGYX 300903 AAA
TAFPWM
TAF AMD
KPWM 300903Z 3009/0106 VRB03KT P6SM BKN060
     FM301200 16008KT P6SM SCT050 BKN100=



000
FTUS41 KGYX 300903 AAC
TAFLEB
TAF AMD
KLEB 300903Z 3009/0106 VRB03KT 6SM BR SCT001
      TEMPO 3009/3011 1/2SM FG VV001
     FM301300 17007KT P6SM BKN050=



000
FTUS41 KGYX 300903 AAD
TAFCON
TAF AMD
KCON 300903Z 3009/0106 00000KT 6SM BR SCT002
     FM301200 17007KT P6SM SCT050 BKN100=



000
FTUS41 KGYX 300903 AAA
TAFAUG
TAF AMD
KAUG 300903Z 3009/0106 00000KT P6SM OVC060
     FM301200 16008KT P6SM SCT050 BKN100=



000
FTUS41 KGYX 300903 AAA
TAFPSM
TAF AMD
KPSM 300903Z 3009/0106 24004KT P6SM BKN080
     FM301200 15007KT P6SM SCT050 BKN100=



000
FTUS41 KGYX 300834 AAB
TAFLEB
TAF AMD
KLEB 300834Z 3009/0106 VRB03KT 6SM BR SCT001
      TEMPO 3009/3011 1SM BR BKN001
     FM301300 17007KT P6SM BKN050=



000
FTUS41 KGYX 300833 AAC
TAFCON
TAF AMD
KCON 300833Z 3009/0106 00000KT 6SM BR SCT002
     FM301200 17007KT P6SM SCT050 BKN100=



000
FTUS41 KGYX 300745 AAA
TAFLEB
TAF AMD
KLEB 300745Z 3008/0106 VRB03KT P6SM BKN060
      TEMPO 3008/3010 BKN010
     FM301000 00000KT 5SM BR SCT010 BKN060
     FM301300 17007KT P6SM BKN050=



000
FTUS41 KGYX 300745 AAA
TAFLEB
TAF AMD
KLEB 300745Z 3008/0106 VRB03KT P6SM BKN060
      TEMPO 3008/3010 BKN010
     FM301000 00000KT 5SM BR SCT010 BKN060
     FM301300 17007KT P6SM BKN050=



000
FTUS41 KGYX 300716 AAB
TAFCON
TAF AMD
KCON 300716Z 3007/0106 00000KT 3SM BR SCT002
      TEMPO 3007/3010 1/2SM FG VV002
     FM301200 17007KT P6SM SCT050 BKN100=



000
FTUS41 KGYX 300716 AAB
TAFCON
TAF AMD
KCON 300716Z 3007/0106 00000KT 3SM BR SCT002
      TEMPO 3007/3010 1/2SM FG VV002
     FM301200 17007KT P6SM SCT050 BKN100=



000
FTUS41 KGYX 300701 AAA
TAFCON
TAF AMD
KCON 300701Z 3007/0106 00000KT P6SM BKN080
      TEMPO 3007/3010 3SM BR SCT005
     FM301200 17007KT P6SM SCT050 BKN100=



000
FTUS41 KGYX 300701 AAA
TAFCON
TAF AMD
KCON 300701Z 3007/0106 00000KT P6SM BKN080
      TEMPO 3007/3010 3SM BR SCT005
     FM301200 17007KT P6SM SCT050 BKN100=



000
FTUS41 KGYX 300527
TAFCON
TAF
KCON 300527Z 3006/0106 00000KT P6SM BKN080
     FM301200 17007KT P6SM SCT050 BKN100=



000
FTUS41 KGYX 300527
TAFPSM
TAF
KPSM 300527Z 3006/0106 24004KT P6SM BKN080
     FM301200 15007KT P6SM SCT050 BKN100=



000
FTUS41 KGYX 300527
TAFLEB
TAF
KLEB 300527Z 3006/0106 VRB03KT P6SM OVC040
     FM300900 00000KT 5SM BR SCT005 OVC040
     FM301300 17007KT P6SM BKN050=



000
FTUS41 KGYX 300527
TAFAUG
TAF
KAUG 300527Z 3006/0106 00000KT P6SM OVC060
     FM301200 16008KT P6SM SCT050 BKN100=



000
FTUS41 KGYX 300527
TAFPWM
TAF
KPWM 300527Z 3006/0106 00000KT P6SM BKN050
      TEMPO 3008/3011 6SM BR
     FM301200 16008KT P6SM SCT050 BKN100=



000
FTUS41 KGYX 300527
TAFPWM
TAF
KPWM 300527Z 3006/0106 00000KT P6SM BKN050
      TEMPO 3008/3011 6SM BR
     FM301200 16008KT P6SM SCT050 BKN100=



000
FTUS41 KGYX 300527
TAFCON
TAF
KCON 300527Z 3006/0106 00000KT P6SM BKN080
     FM301200 17007KT P6SM SCT050 BKN100=



000
FTUS41 KGYX 300527
TAFPSM
TAF
KPSM 300527Z 3006/0106 24004KT P6SM BKN080
     FM301200 15007KT P6SM SCT050 BKN100=



000
FTUS41 KGYX 300527
TAFLEB
TAF
KLEB 300527Z 3006/0106 VRB03KT P6SM OVC040
     FM300900 00000KT 5SM BR SCT005 OVC040
     FM301300 17007KT P6SM BKN050=



000
FTUS41 KGYX 300527
TAFAUG
TAF
KAUG 300527Z 3006/0106 00000KT P6SM OVC060
     FM301200 16008KT P6SM SCT050 BKN100=



000
FTUS41 KGYX 300406 AAA
TAFPWM
TAF AMD
KPWM 300406Z 3004/3024 00000KT P6SM BKN070
     FM300600 00000KT 2SM BR OVC050
     FM300800 00000KT P6SM OVC050
     FM301200 14004KT P6SM OVC250=



000
FTUS41 KGYX 300405 AAC
TAFLEB
TAF AMD
KLEB 300405Z 3004/3024 00000KT P6SM OVC060
     FM300700 00000KT 5SM BR OVC060
     FM300800 00000KT 2SM BR OVC001
     FM301200 00000KT P6SM BKN050 BKN250
     FM301800 17005KT P6SM BKN250
     FM302000 18006KT P6SM OVC100=



000
FTUS41 KGYX 300228 AAB
TAFLEB
TAF AMD
KLEB 300228Z 3002/3024 36004KT P6SM BKN010 OVC070
     FM300700 00000KT 5SM BR OVC060
     FM300800 00000KT 2SM BR OVC001
     FM301200 00000KT P6SM BKN050 BKN250
     FM301800 17005KT P6SM BKN250
     FM302000 18006KT P6SM OVC100=



000
FTUS41 KGYX 300128 AAA
TAFLEB
TAF AMD
KLEB 300128Z 3001/3024 01005KT P6SM BKN016 BKN030 OVC035
     FM300700 00000KT 2SM BR OVC060
     FM300800 00000KT 3/4SM BR OVC001
     FM301200 00000KT P6SM BKN050 BKN250
     FM301800 17005KT P6SM BKN250
     FM302000 18006KT P6SM OVC100=



000
FTUS41 KGYX 300128 AAA
TAFLEB
TAF AMD
KLEB 300128Z 3001/3024 01005KT P6SM BKN016 BKN030 OVC035
     FM300700 00000KT 2SM BR OVC060
     FM300800 00000KT 3/4SM BR OVC001
     FM301200 00000KT P6SM BKN050 BKN250
     FM301800 17005KT P6SM BKN250
     FM302000 18006KT P6SM OVC100=



000
FTUS41 KGYX 292320
TAFCON
TAF
KCON 292320Z 3000/3024 31003KT P6SM FEW040 SCT060 OVC080
     FM300100 23003KT P6SM OVC035
     FM300300 25002KT P6SM SKC
     FM301000 00000KT 4SM BR SKC
     FM301200 17003KT P6SM BKN230
     FM302300 14007KT P6SM -RA OVC140=



000
FTUS41 KGYX 292320
TAFLEB
TAF
KLEB 292320Z 3000/3024 VRB06KT P6SM FEW015 SCT035 OVC080
     FM300200 17001KT P6SM OVC035
     FM300300 00000KT P6SM OVC060
     FM300700 00000KT 2SM BR OVC060
     FM300800 00000KT 3/4SM BR OVC001
     FM301200 00000KT P6SM BKN050 BKN250
     FM301800 17005KT P6SM BKN250
     FM302000 18006KT P6SM OVC100=



000
FTUS41 KGYX 292320
TAFPSM
TAF
KPSM 292320Z 3000/3024 14005KT P6SM FEW040 BKN080
     FM300300 27004KT P6SM SCT100
     FM301800 12007KT P6SM OVC250=



000
FTUS41 KGYX 292320
TAFAUG
TAF
KAUG 292320Z 3000/3024 VRB05KT P6SM OVC080
     FM300300 24003KT 6SM BR OVC060
     FM300500 27003KT 5SM BR OVC060
     FM300600 VRB03KT 3SM BR OVC001
     FM301100 28002KT 1SM BR BKN035
     FM301200 VRB03KT P6SM SCT100
     FM301800 20005KT P6SM BKN250=



000
FTUS41 KGYX 292320
TAFPWM
TAF
KPWM 292320Z 3000/3024 19005KT P6SM SCT080 BKN200
     FM300300 00000KT 2SM BR OVC050
     FM300600 00000KT P6SM OVC050
     FM300900 00000KT P6SM OVC100
     FM301200 14004KT P6SM OVC250=



000
FTUS41 KGYX 292016 AAA
TAFLEB
TAF AMD
KLEB 292016Z 2920/3018 00000KT P6SM BKN030
     FM300300 VRB03KT P6SM SCT100
     FM300800 VRB03KT 1SM BR BKN005
     FM301200 19005KT P6SM BKN050=



000
FTUS41 KGYX 292016 AAA
TAFPSM
TAF AMD
KPSM 292016Z 2920/3018 21004KT P6SM SCT030 BKN060
     FM292300 18007KT P6SM BKN100
     FM300300 VRB03KT P6SM SCT100=



000
FTUS41 KGYX 292016 AAA
TAFLEB
TAF AMD
KLEB 292016Z 2920/3018 00000KT P6SM BKN030
     FM300300 VRB03KT P6SM SCT100
     FM300800 VRB03KT 1SM BR BKN005
     FM301200 19005KT P6SM BKN050=



000
FTUS41 KGYX 291831 AAA
TAFCON
TAF AMD
KCON 291831Z 2919/3018 26005KT P6SM BKN045
     FM292100 28007KT P6SM BKN100
     FM300300 VRB03KT P6SM SCT100=



000
FTUS41 KGYX 291831 AAA
TAFPWM
TAF AMD
KPWM 291831Z 2919/3018 16009KT P6SM SCT030
     FM292200 20007KT P6SM BKN100
     FM300400 VRB03KT P6SM SCT100=



000
FTUS41 KGYX 291831 AAA
TAFCON
TAF AMD
KCON 291831Z 2919/3018 26005KT P6SM BKN045
     FM292100 28007KT P6SM BKN100
     FM300300 VRB03KT P6SM SCT100=



000
FTUS41 KGYX 291831 AAA
TAFPWM
TAF AMD
KPWM 291831Z 2919/3018 16009KT P6SM SCT030
     FM292200 20007KT P6SM BKN100
     FM300400 VRB03KT P6SM SCT100=



000
FTUS41 KGYX 291721
TAFCON
TAF
KCON 291721Z 2918/3018 26005KT P6SM BKN025
     FM292100 28007KT P6SM BKN100
     FM300300 VRB03KT P6SM SCT100=



000
FTUS41 KGYX 291721
TAFLEB
TAF
KLEB 291721Z 2918/3018 26007KT P6SM BKN050
     FM300300 VRB03KT P6SM SCT100
     FM300800 VRB03KT 1SM BR BKN005
     FM301200 19005KT P6SM BKN050=



000
FTUS41 KGYX 291721
TAFPSM
TAF
KPSM 291721Z 2918/3018 26005KT P6SM BKN020
     FM292100 18007KT P6SM BKN100
     FM300300 VRB03KT P6SM SCT100=



000
FTUS41 KGYX 291721
TAFPWM
TAF
KPWM 291721Z 2918/3018 26005KT P6SM BKN025
     FM292100 20007KT P6SM BKN100
     FM300400 VRB03KT P6SM SCT100=



000
FTUS41 KGYX 291721
TAFAUG
TAF
KAUG 291721Z 2918/3018 26005KT P6SM SCT030
     FM292100 28006KT P6SM BKN100
     FM300300 VRB03KT P6SM SCT100
     FM300600 VRB03KT 1SM BR BKN005
     FM301200 VRB03KT P6SM SCT100=



000
FTUS41 KGYX 291404 AAA
TAFLEB
TAF AMD
KLEB 291404Z 2914/3012 VRB03KT P6SM SCT010 OVC020
     FM291700 26007KT P6SM BKN035
     FM300300 VRB03KT P6SM SCT100
      TEMPO 3008/3011 5SM BR SCT005=



000
FTUS41 KGYX 291404 AAA
TAFLEB
TAF AMD
KLEB 291404Z 2914/3012 VRB03KT P6SM SCT010 OVC020
     FM291700 26007KT P6SM BKN035
     FM300300 VRB03KT P6SM SCT100
      TEMPO 3008/3011 5SM BR SCT005=



000
FTUS41 KGYX 291403 AAA
TAFAUG
TAF AMD
KAUG 291403Z 2914/3012 VRB03KT P6SM BKN015 OVC030
     FM291600 26005KT P6SM BKN035
     FM292100 28006KT P6SM BKN100
     FM300300 VRB03KT P6SM SCT100=



000
FTUS41 KGYX 291403 AAA
TAFAUG
TAF AMD
KAUG 291403Z 2914/3012 VRB03KT P6SM BKN015 OVC030
     FM291600 26005KT P6SM BKN035
     FM292100 28006KT P6SM BKN100
     FM300300 VRB03KT P6SM SCT100=



000
FTUS41 KGYX 291402 AAA
TAFPWM
TAF AMD
KPWM 291402Z 2914/3012 26007KT P6SM BKN015 OVC050
     FM291600 26005KT P6SM BKN035
     FM292100 20007KT P6SM BKN100
     FM300400 VRB03KT P6SM SCT100=



000
FTUS41 KGYX 291402 AAA
TAFPWM
TAF AMD
KPWM 291402Z 2914/3012 26007KT P6SM BKN015 OVC050
     FM291600 26005KT P6SM BKN035
     FM292100 20007KT P6SM BKN100
     FM300400 VRB03KT P6SM SCT100=



000
FTUS41 KGYX 291402 AAA
TAFPSM
TAF AMD
KPSM 291402Z 2914/3012 26005KT P6SM BKN010 OVC030
     FM291600 26005KT P6SM BKN035
     FM292100 18007KT P6SM BKN100
     FM300300 VRB03KT P6SM SCT100=



000
FTUS41 KGYX 291402 AAA
TAFPSM
TAF AMD
KPSM 291402Z 2914/3012 26005KT P6SM BKN010 OVC030
     FM291600 26005KT P6SM BKN035
     FM292100 18007KT P6SM BKN100
     FM300300 VRB03KT P6SM SCT100=



000
FTUS41 KGYX 291401 AAA
TAFCON
TAF AMD
KCON 291401Z 2914/3012 26005KT 6SM BR BKN015 OVC020
     FM291600 26005KT P6SM BKN035
     FM292100 28007KT P6SM BKN100
     FM300300 VRB03KT P6SM SCT100=



000
FTUS41 KGYX 291123
TAFPSM
TAF
KPSM 291123Z 2912/3012 VRB03KT 2SM -DZ BR BKN005 OVC030
     FM291300 26005KT P6SM SCT005 BKN030
     FM291500 26005KT P6SM BKN045
     FM292100 18007KT P6SM BKN100
     FM300300 VRB03KT P6SM SCT100=



000
FTUS41 KGYX 291123
TAFPWM
TAF
KPWM 291123Z 2912/3012 22005KT P6SM SCT015 BKN050
     FM291300 26005KT P6SM BKN035
     FM292100 20007KT P6SM BKN100
     FM300400 VRB03KT P6SM SCT100=



000
FTUS41 KGYX 291123
TAFAUG
TAF
KAUG 291123Z 2912/3012 29005KT P6SM SCT014
     FM291230 VRB03KT P6SM BKN025
     FM291500 26005KT P6SM BKN035
     FM292100 28006KT P6SM BKN100
     FM300300 VRB03KT P6SM SCT100=



000
FTUS41 KGYX 291123
TAFCON
TAF
KCON 291123Z 2912/3012 VRB03KT 6SM BR SCT005 OVC024
     FM291500 26005KT P6SM BKN035
     FM292100 28007KT P6SM BKN100
     FM300300 VRB03KT P6SM SCT100=



000
FTUS41 KGYX 291123
TAFLEB
TAF
KLEB 291123Z 2912/3012 20005KT P6SM BKN008 OVC017
     FM291400 VRB03KT P6SM SCT017 BKN035
     FM300300 VRB03KT P6SM SCT100
      TEMPO 3008/3011 5SM BR SCT005=



000
FTUS41 KGYX 291103 AAB
TAFPSM
TAF AMD
KPSM 291103Z 2911/3006 VRB03KT 6SM BR SCT005 OVC030
      TEMPO 2911/2912 3SM -DZ BR BKN005
     FM291200 26005KT P6SM SCT005 BKN020
     FM291500 26005KT P6SM BKN045
     FM292100 18007KT P6SM BKN100=



000
FTUS41 KGYX 291103 AAB
TAFPSM
TAF AMD
KPSM 291103Z 2911/3006 VRB03KT 6SM BR SCT005 OVC030
      TEMPO 2911/2912 3SM -DZ BR BKN005
     FM291200 26005KT P6SM SCT005 BKN020
     FM291500 26005KT P6SM BKN045
     FM292100 18007KT P6SM BKN100=



000
FTUS41 KGYX 290951 AAE
TAFLEB
TAF AMD
KLEB 290951Z 2910/3006 VRB03KT 6SM BR OVC009
     FM291200 VRB03KT P6SM BKN040=



000
FTUS41 KGYX 290905 AAD
TAFLEB
TAF AMD
KLEB 290905Z 2909/3006 VRB03KT 6SM BR SCT006 OVC023
     FM291200 VRB03KT P6SM BKN040=



000
FTUS41 KGYX 290905 AAA
TAFAUG
TAF AMD
KAUG 290905Z 2909/3006 30005KT 6SM BR OVC010
     FM291200 VRB03KT P6SM SCT005 BKN020
     FM291500 26005KT P6SM BKN045
     FM292100 28006KT P6SM BKN100=



000
FTUS41 KGYX 290905 AAA
TAFPWM
TAF AMD
KPWM 290905Z 2909/3006 27005KT P6SM OVC013
     FM291200 26005KT P6SM BKN020
     FM291500 26005KT P6SM BKN045
     FM292100 20007KT P6SM BKN100=



000
FTUS41 KGYX 290905 AAA
TAFCON
TAF AMD
KCON 290905Z 2909/3006 VRB03KT 6SM BR SCT012 OVC027
     FM291200 26005KT P6SM SCT005 BKN020
     FM291500 26005KT P6SM BKN045
     FM292100 28007KT P6SM BKN100=



000
FTUS41 KGYX 290905 AAA
TAFPSM
TAF AMD
KPSM 290905Z 2909/3006 VRB03KT 6SM BR SCT008 OVC029
     FM291200 26005KT P6SM SCT005 BKN020
     FM291500 26005KT P6SM BKN045
     FM292100 18007KT P6SM BKN100=



000
FTUS41 KGYX 290811 AAC
TAFLEB
TAF AMD
KLEB 290811Z 2908/3006 VRB03KT 6SM BR SCT006 OVC023
     FM291200 VRB03KT P6SM BKN040=



000
FTUS41 KGYX 290707 AAB
TAFLEB
TAF AMD
KLEB 290707Z 2907/3006 VRB03KT 6SM BR SCT006 OVC023
      TEMPO 2907/2910 3SM BR BKN006
     FM291200 VRB03KT P6SM BKN040=



000
FTUS41 KGYX 290627 AAA
TAFLEB
TAF AMD
KLEB 290627Z 2906/3006 VRB03KT 6SM BR SCT006 OVC030
      TEMPO 2906/2910 3SM BR BKN006
     FM291200 VRB03KT P6SM BKN040=



000
FTUS41 KGYX 290627 AAA
TAFLEB
TAF AMD
KLEB 290627Z 2906/3006 VRB03KT 6SM BR SCT006 OVC030
      TEMPO 2906/2910 3SM BR BKN006
     FM291200 VRB03KT P6SM BKN040=



000
FTUS41 KGYX 290521
TAFLEB
TAF
KLEB 290521Z 2906/3006 VRB03KT 6SM BR SCT003 OVC030
      TEMPO 2906/2910 3SM BR BKN003
     FM291200 VRB03KT P6SM BKN040=



000
FTUS41 KGYX 290521
TAFPWM
TAF
KPWM 290521Z 2906/3006 33007KT P6SM SCT019 OVC023
      TEMPO 2906/2909 6SM BR OVC019
     FM291200 26005KT P6SM SCT005 BKN020
     FM291500 26005KT P6SM BKN045
     FM292100 20007KT P6SM BKN100=



000
FTUS41 KGYX 290521
TAFAUG
TAF
KAUG 290521Z 2906/3006 33007KT 6SM BR SCT006 OVC020
      TEMPO 2906/2910 2SM BR OVC006
     FM291200 VRB03KT P6SM SCT005 BKN020
     FM291500 26005KT P6SM BKN045
     FM292100 28006KT P6SM BKN100=



000
FTUS41 KGYX 290521
TAFCON
TAF
KCON 290521Z 2906/3006 00000KT P6SM SCT009 BKN023 OVC030
      TEMPO 2906/2910 2SM BR OVC009
     FM291200 26005KT P6SM SCT005 BKN020
     FM291500 26005KT P6SM BKN045
     FM292100 28007KT P6SM BKN100=



000
FTUS41 KGYX 290521
TAFPSM
TAF
KPSM 290521Z 2906/3006 29005KT P6SM SCT008 OVC023
      TEMPO 2906/2910 6SM BR SCT008 OVC016
     FM291200 26005KT P6SM SCT005 BKN020
     FM291500 26005KT P6SM BKN045
     FM292100 18007KT P6SM BKN100=



000
FTUS41 KGYX 290521
TAFPWM
TAF
KPWM 290521Z 2906/3006 33007KT P6SM SCT019 OVC023
      TEMPO 2906/2909 6SM BR OVC019
     FM291200 26005KT P6SM SCT005 BKN020
     FM291500 26005KT P6SM BKN045
     FM292100 20007KT P6SM BKN100=



000
FTUS41 KGYX 290521
TAFCON
TAF
KCON 290521Z 2906/3006 00000KT P6SM SCT009 BKN023 OVC030
      TEMPO 2906/2910 2SM BR OVC009
     FM291200 26005KT P6SM SCT005 BKN020
     FM291500 26005KT P6SM BKN045
     FM292100 28007KT P6SM BKN100=



000
FTUS41 KGYX 290521
TAFPSM
TAF
KPSM 290521Z 2906/3006 29005KT P6SM SCT008 OVC023
      TEMPO 2906/2910 6SM BR SCT008 OVC016
     FM291200 26005KT P6SM SCT005 BKN020
     FM291500 26005KT P6SM BKN045
     FM292100 18007KT P6SM BKN100=



000
FTUS41 KGYX 290521
TAFAUG
TAF
KAUG 290521Z 2906/3006 33007KT 6SM BR SCT006 OVC020
      TEMPO 2906/2910 2SM BR OVC006
     FM291200 VRB03KT P6SM SCT005 BKN020
     FM291500 26005KT P6SM BKN045
     FM292100 28006KT P6SM BKN100=



000
FTUS41 KGYX 290521
TAFLEB
TAF
KLEB 290521Z 2906/3006 VRB03KT 6SM BR SCT003 OVC030
      TEMPO 2906/2910 3SM BR BKN003
     FM291200 VRB03KT P6SM BKN040=



000
FTUS41 KGYX 290431 AAB
TAFAUG
TAF AMD
KAUG 290431Z 2905/2924 35009KT 5SM BR BKN010 OVC015
      TEMPO 2905/2909 2SM BR OVC005
     FM291200 VRB03KT P6SM SCT005 BKN020
     FM291500 26005KT P6SM BKN045
     FM292100 28006KT P6SM BKN100=



000
FTUS41 KGYX 290429 AAB
TAFPSM
TAF AMD
KPSM 290429Z 2904/2924 30006KT P6SM SCT016 OVC024
      TEMPO 2905/2909 6SM BR SCT008 OVC016
     FM291200 26005KT P6SM SCT005 BKN020
     FM291500 26005KT P6SM BKN045
     FM292100 18007KT P6SM BKN100=



000
FTUS41 KGYX 290429 AAB
TAFPSM
TAF AMD
KPSM 290429Z 2904/2924 30006KT P6SM SCT016 OVC024
      TEMPO 2905/2909 6SM BR SCT008 OVC016
     FM291200 26005KT P6SM SCT005 BKN020
     FM291500 26005KT P6SM BKN045
     FM292100 18007KT P6SM BKN100=



000
FTUS41 KGYX 290428 AAD
TAFPWM
TAF AMD
KPWM 290428Z 2904/2924 33008KT P6SM SCT019 OVC023
      TEMPO 2905/2909 6SM BR OVC019
     FM291200 26005KT P6SM SCT005 BKN020
     FM291500 26005KT P6SM BKN045
     FM292100 20007KT P6SM BKN100=



000
FTUS41 KGYX 290242 AAB
TAFCON
TAF AMD
KCON 290242Z 2903/2924 00000KT P6SM SCT018 BKN023 OVC030
      TEMPO 2903/2906 2SM BR OVC009
     FM291200 26005KT P6SM SCT005 BKN020
     FM291500 26005KT P6SM BKN045
     FM292100 28007KT P6SM BKN100=



000
FTUS41 KGYX 290242 AAC
TAFPWM
TAF AMD
KPWM 290242Z 2903/2924 36008KT P6SM BKN007 BKN018 OVC023
      TEMPO 2903/2906 1SM BR OVC005
     FM291200 26005KT P6SM SCT005 BKN020
     FM291500 26005KT P6SM BKN045
     FM292100 20007KT P6SM BKN100=



000
FTUS41 KGYX 290242 AAA
TAFLEB
TAF AMD
KLEB 290242Z 2903/2924 19003KT P6SM OVC021
     FM291200 VRB03KT P6SM BKN040=



000
FTUS41 KGYX 290213 AAA
TAFAUG
TAF AMD
KAUG 290213Z 2902/2924 02009KT 3SM -RA BR BKN005 OVC010
      TEMPO 2902/2906 3/4SM BR OVC002
     FM291200 VRB03KT P6SM SCT005 BKN020
     FM291500 26005KT P6SM BKN045
     FM292100 28006KT P6SM BKN100=



000
FTUS41 KGYX 290213 AAA
TAFAUG
TAF AMD
KAUG 290213Z 2902/2924 02009KT 3SM -RA BR BKN005 OVC010
      TEMPO 2902/2906 3/4SM BR OVC002
     FM291200 VRB03KT P6SM SCT005 BKN020
     FM291500 26005KT P6SM BKN045
     FM292100 28006KT P6SM BKN100=



000
FTUS41 KGYX 290210 AAA
TAFCON
TAF AMD
KCON 290210Z 2902/2924 31005KT P6SM BKN020 OVC030
      TEMPO 2902/2906 1SM BR OVC009
     FM291200 26005KT P6SM SCT005 BKN020
     FM291500 26005KT P6SM BKN045
     FM292100 28007KT P6SM BKN100=



000
FTUS41 KGYX 290209 AAB
TAFPWM
TAF AMD
KPWM 290209Z 2902/2924 01010KT 1 1/2SM -DZ BR OVC020
      TEMPO 2902/2906 1/2SM FG OVC007
     FM291200 26005KT P6SM SCT005 BKN020
     FM291500 26005KT P6SM BKN045
     FM292100 20007KT P6SM BKN100=



000
FTUS41 KGYX 290209 AAB
TAFPWM
TAF AMD
KPWM 290209Z 2902/2924 01010KT 1 1/2SM -DZ BR OVC020
      TEMPO 2902/2906 1/2SM FG OVC007
     FM291200 26005KT P6SM SCT005 BKN020
     FM291500 26005KT P6SM BKN045
     FM292100 20007KT P6SM BKN100=



000
FTUS41 KGYX 290200 AAA
TAFPSM
TAF AMD
KPSM 290200Z 2902/2924 35006KT P6SM OVC006
      TEMPO 2902/2906 1 1/2SM BR OVC012
     FM291200 26005KT P6SM SCT005 BKN020
     FM291500 26005KT P6SM BKN045
     FM292100 18007KT P6SM BKN100=



000
FTUS41 KGYX 290159 AAA
TAFPWM
TAF AMD
KPWM 290159Z 2902/2924 03010KT 1SM -RA BR OVC007
      TEMPO 2902/2906 1/2SM FG OVC003
     FM291200 26005KT P6SM SCT005 BKN020
     FM291500 26005KT P6SM BKN045
     FM292100 20007KT P6SM BKN100=



000
FTUS41 KGYX 282330
TAFPWM
TAF
KPWM 282330Z 2900/2924 04010G20KT 1SM -RA BR BKN007 OVC015
      TEMPO 2900/2904 1/2SM FG OVC003
     FM291200 26005KT P6SM SCT005 BKN020
     FM291500 26005KT P6SM BKN045
     FM292100 20007KT P6SM BKN100=



000
FTUS41 KGYX 282330
TAFPSM
TAF
KPSM 282330Z 2900/2924 04013G24KT 2SM BR BKN006 OVC011
      TEMPO 2900/2904 3/4SM BR OVC003
     FM291200 26005KT P6SM SCT005 BKN020
     FM291500 26005KT P6SM BKN045
     FM292100 18007KT P6SM BKN100=



000
FTUS41 KGYX 282330
TAFLEB
TAF
KLEB 282330Z 2900/2924 VRB04KT P6SM OVC018
      TEMPO 2900/2903 3SM BR OVC007
     FM291200 VRB03KT P6SM BKN040=



000
FTUS41 KGYX 282330
TAFAUG
TAF
KAUG 282330Z 2900/2924 04009KT 2SM -RA BR BKN007 OVC013
      TEMPO 2900/2904 1/2SM FG OVC002
     FM291200 VRB03KT P6SM SCT005 BKN020
     FM291500 26005KT P6SM BKN045
     FM292100 28006KT P6SM BKN100=



000
FTUS41 KGYX 282330
TAFCON
TAF
KCON 282330Z 2900/2924 04006KT P6SM BKN013 OVC023
      TEMPO 2900/2904 1/2SM FG OVC003
     FM291200 26005KT P6SM SCT005 BKN020
     FM291500 26005KT P6SM BKN045
     FM292100 28007KT P6SM BKN100=



000
FTUS41 KGYX 282330
TAFAUG
TAF
KAUG 282330Z 2900/2924 04009KT 2SM -RA BR BKN007 OVC013
      TEMPO 2900/2904 1/2SM FG OVC002
     FM291200 VRB03KT P6SM SCT005 BKN020
     FM291500 26005KT P6SM BKN045
     FM292100 28006KT P6SM BKN100=



000
FTUS41 KGYX 282330
TAFPSM
TAF
KPSM 282330Z 2900/2924 04013G24KT 2SM BR BKN006 OVC011
      TEMPO 2900/2904 3/4SM BR OVC003
     FM291200 26005KT P6SM SCT005 BKN020
     FM291500 26005KT P6SM BKN045
     FM292100 18007KT P6SM BKN100=



000
FTUS41 KGYX 282330
TAFPWM
TAF
KPWM 282330Z 2900/2924 04010G20KT 1SM -RA BR BKN007 OVC015
      TEMPO 2900/2904 1/2SM FG OVC003
     FM291200 26005KT P6SM SCT005 BKN020
     FM291500 26005KT P6SM BKN045
     FM292100 20007KT P6SM BKN100=



000
FTUS41 KGYX 282330
TAFCON
TAF
KCON 282330Z 2900/2924 04006KT P6SM BKN013 OVC023
      TEMPO 2900/2904 1/2SM FG OVC003
     FM291200 26005KT P6SM SCT005 BKN020
     FM291500 26005KT P6SM BKN045
     FM292100 28007KT P6SM BKN100=



000
FTUS41 KGYX 282330
TAFLEB
TAF
KLEB 282330Z 2900/2924 VRB04KT P6SM OVC018
      TEMPO 2900/2903 3SM BR OVC007
     FM291200 VRB03KT P6SM BKN040=



000
FTUS41 KGYX 282020 AAA
TAFAUG
TAF AMD
KAUG 282020Z 2820/2918 07008G19KT 3SM -RA BR SCT009 BKN015 OVC020
      TEMPO 2821/2901 5SM BR BKN004
     FM290100 02008KT 2SM BR OVC003
     FM290400 VRB03KT 1/2SM FG OVC002
     FM291200 VRB03KT P6SM SCT005 BKN020
     FM291500 26005KT P6SM BKN045=



000
FTUS41 KGYX 282019 AAA
TAFLEB
TAF AMD
KLEB 282019Z 2820/2918 10007G17KT P6SM -RA SCT024 BKN035 OVC045
      TEMPO 2820/2824 4SM BR BKN025
     FM290300 00000KT 3SM BR OVC007
     FM291200 VRB03KT P6SM BKN040=



000
FTUS41 KGYX 282017 AAA
TAFPSM
TAF AMD
KPSM 282017Z 2820/2918 04018G29KT 1SM -DZ BR OVC005
      TEMPO 2820/2824 3SM BR OVC009
     FM290200 02006KT 1 1/2SM BR OVC003
     FM290500 VRB03KT 3/4SM BR OVC003
     FM291200 26005KT P6SM SCT005 BKN020
     FM291500 26005KT P6SM BKN045=



000
FTUS41 KGYX 282016 AAA
TAFPWM
TAF AMD
KPWM 282016Z 2820/2918 06013G25KT 1SM -RA BR BKN008 OVC012
     FM282200 03014G24KT 6SM -DZ BR BKN004
     FM290200 02008KT 2SM BR OVC003
     FM290400 VRB03KT 1/2SM FG OVC003
     FM291200 26005KT P6SM SCT005 BKN020
     FM291500 26005KT P6SM BKN045=



000
FTUS41 KGYX 281722
TAFCON
TAF
KCON 281722Z 2818/2918 03008G18KT P6SM OVC012
     FM282100 03007KT P6SM BKN005
     FM290100 02004KT 2SM BR OVC005
     FM290400 VRB03KT 1/2SM FG OVC003
     FM291200 26005KT P6SM SCT005 BKN020
     FM291500 26005KT P6SM BKN045=



000
FTUS41 KGYX 281722
TAFPWM
TAF
KPWM 281722Z 2818/2918 06018G28KT 3SM -SHRA BR BKN007 OVC012
     FM282000 03014G24KT 6SM -DZ BR BKN004
     FM290200 02008KT 2SM BR OVC003
     FM290400 VRB03KT 1/2SM FG OVC003
     FM291200 26005KT P6SM SCT005 BKN020
     FM291500 26005KT P6SM BKN045=



000
FTUS41 KGYX 281722
TAFPSM
TAF
KPSM 281722Z 2818/2918 06015G30KT 2SM -RADZ BR OVC006
     FM282100 03010G20KT 2SM BR OVC006
     FM290200 02006KT 1 1/2SM BR OVC003
     FM290500 VRB03KT 3/4SM BR OVC003
     FM291200 26005KT P6SM SCT005 BKN020
     FM291500 26005KT P6SM BKN045=



000
FTUS41 KGYX 281722
TAFLEB
TAF
KLEB 281722Z 2818/2918 06010G18KT P6SM BKN024 OVC035
     FM290300 00000KT 3SM BR OVC007
     FM291200 VRB03KT P6SM BKN040=



000
FTUS41 KGYX 281722
TAFAUG
TAF
KAUG 281722Z 2818/2918 08010G22KT 2SM -RA BR BKN007 OVC012
     FM282200 03010G20KT 5SM BR BKN004
     FM290200 02008KT 2SM BR OVC003
     FM290400 VRB03KT 1/2SM FG OVC002
     FM291200 VRB03KT P6SM SCT005 BKN020
     FM291500 26005KT P6SM BKN045=



000
FTUS41 KGYX 281554 AAA
TAFPWM
TAF AMD
KPWM 281554Z 2816/2912 07016G25KT 2SM -RA BR BKN006 OVC015
      WS020/12050KT
     FM281700 07019G28KT 2SM -RA BR BKN007 WS020/10045KT
     FM282200 03014G24KT 6SM -RA BR BKN004
     FM290200 02008KT 2SM BR OVC003=



000
FTUS41 KGYX 281554 AAA
TAFPWM
TAF AMD
KPWM 281554Z 2816/2912 07016G25KT 2SM -RA BR BKN006 OVC015
      WS020/12050KT
     FM281700 07019G28KT 2SM -RA BR BKN007 WS020/10045KT
     FM282200 03014G24KT 6SM -RA BR BKN004
     FM290200 02008KT 2SM BR OVC003=



    US Dept of Commerce
    National Oceanic and Atmospheric Administration
    National Weather Service
    1325 East West Highway
    Silver Spring, MD 20910
    Page Author: NWS Internet Services Team
Disclaimer
Information Quality
Credits
Glossary
Privacy Policy
Freedom of Information Act (FOIA)
About Us
Career Opportunities